Time;durP1;ratioP1;P1;durP2;ratioP2;P2;SDS_P1;SDS_P2;PMS_P1;PMS_P2;Temp;Humidity;BMP_temperature;BMP_pressure;BME280_temperature;BME280_humidity;BME280_pressure;Samples;Min_cycle;Max_cycle;Signal;HPM_P1;HPM_P2
2023/03/09 00:00:22;;;;;;;13.55;8.77;;;;;;;;;;4994128;28;20799;-43
2023/03/09 00:02:49;;;;;;;13.98;8.85;;;;;;;;;;4995214;28;20207;-43
2023/03/09 00:05:16;;;;;;;17.45;9.98;;;;;;;;;;4995337;28;20568;-42
2023/03/09 00:07:42;;;;;;;16.38;9.80;;;;;;;;;;4995424;28;20169;-43
2023/03/09 00:10:10;;;;;;;15.77;9.60;;;;;;;;;;5001469;28;20197;-46
2023/03/09 00:12:36;;;;;;;15.93;10.32;;;;;;;;;;4995299;28;20206;-43
2023/03/09 00:15:02;;;;;;;16.27;9.77;;;;;;;;;;4999158;28;20522;-42
2023/03/09 00:17:28;;;;;;;14.23;9.13;;;;;;;;;;4995422;28;20784;-42
2023/03/09 00:20:00;;;;;;;14.93;9.60;;;;;;;;;;4995037;28;20408;-43
2023/03/09 00:22:27;;;;;;;11.35;7.57;;;;;;;;;;4994910;28;20443;-43
2023/03/09 00:24:55;;;;;;;17.20;9.73;;;;;;;;;;4994826;28;20175;-43
2023/03/09 00:27:22;;;;;;;19.60;10.73;;;;;;;;;;4995107;28;20260;-45
2023/03/09 00:29:48;;;;;;;13.55;9.20;;;;;;;;;;4994923;28;20173;-45
2023/03/09 00:32:14;;;;;;;16.17;9.60;;;;;;;;;;4994354;28;20211;-42
2023/03/09 00:34:40;;;;;;;18.25;10.88;;;;;;;;;;4999134;28;20437;-42
2023/03/09 00:37:05;;;;;;;19.17;11.07;;;;;;;;;;4994943;28;20196;-43
2023/03/09 00:39:31;;;;;;;18.10;11.17;;;;;;;;;;4994900;28;20661;-42
2023/03/09 00:41:57;;;;;;;18.70;9.53;;;;;;;;;;4994024;28;20435;-43
2023/03/09 00:44:23;;;;;;;17.73;9.60;;;;;;;;;;4992908;28;20444;-42
2023/03/09 00:46:49;;;;;;;13.50;9.10;;;;;;;;;;4991749;28;20443;-42
2023/03/09 00:49:16;;;;;;;16.03;9.37;;;;;;;;;;4993456;28;20416;-43
2023/03/09 00:51:42;;;;;;;14.35;9.05;;;;;;;;;;4993328;28;20995;-43
2023/03/09 00:54:08;;;;;;;18.95;10.93;;;;;;;;;;4994303;28;20169;-43
2023/03/09 00:56:34;;;;;;;19.00;10.50;;;;;;;;;;4993764;28;20238;-44
2023/03/09 00:59:01;;;;;;;15.77;10.50;;;;;;;;;;4994323;28;20416;-44
2023/03/09 01:01:27;;;;;;;16.67;11.57;;;;;;;;;;4997484;28;20205;-43
2023/03/09 01:03:53;;;;;;;16.95;9.88;;;;;;;;;;4994220;28;20259;-43
2023/03/09 01:06:19;;;;;;;18.80;10.80;;;;;;;;;;4994192;28;20656;-43
2023/03/09 01:08:45;;;;;;;18.58;10.73;;;;;;;;;;4994111;28;20904;-43
2023/03/09 01:11:13;;;;;;;20.77;11.40;;;;;;;;;;4993524;28;20210;-42
2023/03/09 01:13:39;;;;;;;15.40;10.25;;;;;;;;;;4994213;28;20412;-43
2023/03/09 01:16:05;;;;;;;18.67;11.05;;;;;;;;;;4992787;28;20539;-44
2023/03/09 01:18:31;;;;;;;18.58;9.93;;;;;;;;;;4993373;28;20181;-43
2023/03/09 01:20:58;;;;;;;19.15;11.77;;;;;;;;;;4995851;28;20179;-44
2023/03/09 01:23:25;;;;;;;16.33;9.60;;;;;;;;;;4994251;28;20286;-43
2023/03/09 01:25:51;;;;;;;19.35;10.85;;;;;;;;;;4996205;28;20202;-43
2023/03/09 01:28:17;;;;;;;17.83;10.57;;;;;;;;;;4993984;28;20185;-43
2023/03/09 01:30:43;;;;;;;20.60;13.03;;;;;;;;;;4993084;28;20467;-43
2023/03/09 01:33:09;;;;;;;25.50;13.80;;;;;;;;;;4993647;28;20483;-44
2023/03/09 01:35:38;;;;;;;23.20;13.73;;;;;;;;;;4993460;28;20431;-43
2023/03/09 01:38:04;;;;;;;21.00;10.95;;;;;;;;;;4993633;28;20488;-43
2023/03/09 01:40:31;;;;;;;24.73;12.38;;;;;;;;;;4993122;28;20203;-43
2023/03/09 01:42:59;;;;;;;26.63;11.07;;;;;;;;;;4993686;28;20964;-42
2023/03/09 01:45:25;;;;;;;23.67;11.38;;;;;;;;;;4993525;28;20226;-45
2023/03/09 01:47:51;;;;;;;25.67;14.13;;;;;;;;;;4992615;28;20669;-43
2023/03/09 01:50:19;;;;;;;22.37;11.00;;;;;;;;;;4992668;28;20467;-43
2023/03/09 01:52:46;;;;;;;24.40;11.73;;;;;;;;;;4993191;28;20941;-44
2023/03/09 01:55:14;;;;;;;22.02;11.10;;;;;;;;;;4993897;28;20188;-45
2023/03/09 01:57:48;;;;;;;21.95;11.80;;;;;;;;;;4993338;28;20707;-44
2023/03/09 02:00:34;;;;;;;23.45;12.90;;;;;;;;;;4985168;28;20180;-45
2023/03/09 02:03:08;;;;;;;24.73;13.95;;;;;;;;;;4992885;28;20198;-45
2023/03/09 02:05:46;;;;;;;22.25;11.70;;;;;;;;;;4993528;28;20183;-45
2023/03/09 02:08:13;;;;;;;25.52;13.82;;;;;;;;;;4994142;28;20181;-45
2023/03/09 02:11:11;;;;;;;23.85;11.60;;;;;;;;;;4993087;28;20692;-45
2023/03/09 02:13:39;;;;;;;27.13;12.98;;;;;;;;;;4973958;28;20193;-44
2023/03/09 02:16:05;;;;;;;25.98;14.13;;;;;;;;;;4996755;28;20209;-46
2023/03/09 02:18:32;;;;;;;25.45;12.27;;;;;;;;;;4993732;28;20184;-47
2023/03/09 02:21:08;;;;;;;25.25;14.02;;;;;;;;;;5000712;28;20333;-45
2023/03/09 02:23:42;;;;;;;31.95;15.70;;;;;;;;;;4994125;28;20214;-44
2023/03/09 02:26:12;;;;;;;26.05;14.50;;;;;;;;;;4997140;28;20192;-46
2023/03/09 02:28:38;;;;;;;43.83;18.08;;;;;;;;;;4993899;28;20279;-47
2023/03/09 02:31:05;;;;;;;39.30;16.53;;;;;;;;;;4993155;28;20229;-46
2023/03/09 02:33:31;;;;;;;34.47;14.13;;;;;;;;;;4993646;28;20844;-47
2023/03/09 02:35:58;;;;;;;35.60;14.73;;;;;;;;;;4993926;28;20173;-45
2023/03/09 02:38:26;;;;;;;29.75;14.93;;;;;;;;;;4993470;28;20793;-46
2023/03/09 02:40:53;;;;;;;37.10;16.05;;;;;;;;;;4999179;28;20176;-45
2023/03/09 02:43:21;;;;;;;39.80;17.38;;;;;;;;;;4993159;28;20201;-46
2023/03/09 02:45:49;;;;;;;42.97;17.05;;;;;;;;;;4993314;28;20188;-45
2023/03/09 02:48:15;;;;;;;43.30;17.70;;;;;;;;;;4991753;28;20188;-46
2023/03/09 02:50:41;;;;;;;43.15;19.15;;;;;;;;;;4991738;28;20203;-45
2023/03/09 02:53:07;;;;;;;39.43;18.47;;;;;;;;;;4993025;28;20184;-45
2023/03/09 02:55:33;;;;;;;43.13;20.50;;;;;;;;;;4997114;28;20407;-45
2023/03/09 02:58:02;;;;;;;41.72;19.25;;;;;;;;;;4994375;28;20330;-45
2023/03/09 03:00:28;;;;;;;37.28;18.23;;;;;;;;;;4995666;28;20195;-47
2023/03/09 03:02:54;;;;;;;38.83;17.42;;;;;;;;;;4999401;28;20207;-46
2023/03/09 03:05:27;;;;;;;46.40;19.17;;;;;;;;;;4992824;28;20188;-45
2023/03/09 03:08:00;;;;;;;40.25;18.23;;;;;;;;;;4993451;28;20409;-47
2023/03/09 03:10:25;;;;;;;39.90;18.92;;;;;;;;;;4992195;28;20207;-45
2023/03/09 03:12:51;;;;;;;41.80;16.80;;;;;;;;;;4993178;28;20207;-45
2023/03/09 03:15:17;;;;;;;42.07;19.30;;;;;;;;;;4986528;28;20411;-44
2023/03/09 03:17:43;;;;;;;40.45;18.48;;;;;;;;;;4992037;28;20484;-45
2023/03/09 03:20:12;;;;;;;43.23;17.00;;;;;;;;;;4991367;28;20211;-45
2023/03/09 03:22:38;;;;;;;46.53;19.88;;;;;;;;;;4992827;28;20471;-46
2023/03/09 03:25:05;;;;;;;40.58;17.40;;;;;;;;;;4992638;28;20223;-45
2023/03/09 03:27:32;;;;;;;40.55;17.40;;;;;;;;;;4996799;28;20185;-45
2023/03/09 03:29:58;;;;;;;46.55;19.02;;;;;;;;;;4992620;28;20219;-45
2023/03/09 03:32:24;;;;;;;42.58;19.48;;;;;;;;;;4993861;28;20335;-45
2023/03/09 03:34:50;;;;;;;44.10;19.13;;;;;;;;;;4992330;28;20220;-46
2023/03/09 03:37:17;;;;;;;33.53;17.03;;;;;;;;;;4995793;28;20193;-45
2023/03/09 03:39:42;;;;;;;41.72;17.92;;;;;;;;;;4992173;28;20420;-45
2023/03/09 03:42:08;;;;;;;42.37;19.37;;;;;;;;;;4992146;28;20287;-45
2023/03/09 03:44:34;;;;;;;42.33;17.93;;;;;;;;;;4992236;28;20432;-45
2023/03/09 03:47:00;;;;;;;38.57;18.03;;;;;;;;;;4992579;28;20475;-45
2023/03/09 03:49:26;;;;;;;36.90;18.77;;;;;;;;;;4993763;28;20919;-45
2023/03/09 03:51:52;;;;;;;36.38;16.02;;;;;;;;;;4996129;28;20550;-45
2023/03/09 03:54:18;;;;;;;38.57;17.00;;;;;;;;;;4990729;28;20248;-45
2023/03/09 03:56:44;;;;;;;38.80;16.67;;;;;;;;;;4992637;28;20414;-46
2023/03/09 03:59:10;;;;;;;41.10;18.03;;;;;;;;;;4992263;28;20420;-45
2023/03/09 04:01:36;;;;;;;42.80;19.20;;;;;;;;;;4991842;28;20512;-46
2023/03/09 04:04:02;;;;;;;40.00;17.87;;;;;;;;;;4992069;28;20420;-45
2023/03/09 04:06:28;;;;;;;44.13;17.17;;;;;;;;;;4992224;28;20420;-46
2023/03/09 04:08:54;;;;;;;40.03;18.70;;;;;;;;;;4992160;28;20187;-45
2023/03/09 04:11:20;;;;;;;45.50;20.10;;;;;;;;;;4992832;28;20573;-45
2023/03/09 04:13:47;;;;;;;50.37;19.60;;;;;;;;;;4992150;28;20775;-45
2023/03/09 04:16:13;;;;;;;48.67;20.77;;;;;;;;;;4993279;28;20754;-47
2023/03/09 04:18:39;;;;;;;44.77;19.37;;;;;;;;;;4990911;28;20227;-45
2023/03/09 04:21:05;;;;;;;40.57;18.93;;;;;;;;;;4991487;28;20854;-46
2023/03/09 04:23:31;;;;;;;42.43;20.17;;;;;;;;;;4993142;28;20412;-45
2023/03/09 04:25:58;;;;;;;42.43;18.77;;;;;;;;;;4995971;28;20416;-45
2023/03/09 04:28:24;;;;;;;46.78;19.42;;;;;;;;;;4995604;28;20981;-47
2023/03/09 04:30:50;;;;;;;48.33;20.30;;;;;;;;;;4994798;28;20218;-46
2023/03/09 04:33:16;;;;;;;39.50;17.57;;;;;;;;;;4992360;28;20213;-45
2023/03/09 04:35:42;;;;;;;36.80;16.80;;;;;;;;;;4995055;28;20456;-45
2023/03/09 04:38:09;;;;;;;39.80;16.53;;;;;;;;;;4995499;28;20435;-45
2023/03/09 04:40:35;;;;;;;37.92;15.95;;;;;;;;;;4994684;28;20416;-45
2023/03/09 04:43:01;;;;;;;40.40;16.92;;;;;;;;;;4998020;28;20223;-45
2023/03/09 04:45:27;;;;;;;38.60;15.85;;;;;;;;;;4995042;28;20184;-47
2023/03/09 04:47:53;;;;;;;40.53;18.25;;;;;;;;;;5001206;28;20192;-47
2023/03/09 04:50:19;;;;;;;39.95;17.20;;;;;;;;;;4993753;28;20224;-45
2023/03/09 04:52:45;;;;;;;36.03;16.57;;;;;;;;;;4995771;28;20224;-45
2023/03/09 04:55:11;;;;;;;48.30;18.93;;;;;;;;;;4995284;28;20409;-46
2023/03/09 04:57:37;;;;;;;47.70;19.48;;;;;;;;;;5000547;28;20893;-45
2023/03/09 05:00:04;;;;;;;53.92;20.33;;;;;;;;;;4994489;28;20594;-45
2023/03/09 05:02:30;;;;;;;43.13;20.65;;;;;;;;;;4994795;28;20201;-46
2023/03/09 05:04:56;;;;;;;45.13;18.80;;;;;;;;;;4994871;28;20177;-45
2023/03/09 05:07:22;;;;;;;39.00;18.83;;;;;;;;;;5001552;28;20260;-45
2023/03/09 05:09:48;;;;;;;41.85;19.85;;;;;;;;;;4994885;28;20415;-45
2023/03/09 05:12:14;;;;;;;43.42;18.60;;;;;;;;;;4994020;28;20217;-45
2023/03/09 05:14:40;;;;;;;49.55;19.92;;;;;;;;;;4994803;28;20185;-45
2023/03/09 05:17:06;;;;;;;40.63;19.70;;;;;;;;;;4994331;28;20177;-44
2023/03/09 05:19:35;;;;;;;39.37;15.50;;;;;;;;;;4994075;28;20188;-44
2023/03/09 05:22:02;;;;;;;47.00;20.20;;;;;;;;;;4997975;28;20453;-44
2023/03/09 05:24:28;;;;;;;37.70;16.17;;;;;;;;;;4993816;28;20263;-44
2023/03/09 05:26:54;;;;;;;44.22;18.88;;;;;;;;;;4993791;28;20244;-44
2023/03/09 05:29:20;;;;;;;44.72;18.85;;;;;;;;;;4994068;28;20185;-44
2023/03/09 05:31:46;;;;;;;40.08;16.60;;;;;;;;;;4998123;28;20231;-44
2023/03/09 05:34:12;;;;;;;42.40;19.00;;;;;;;;;;4993370;28;20563;-43
2023/03/09 05:36:38;;;;;;;44.97;20.20;;;;;;;;;;4993102;28;20404;-44
2023/03/09 05:39:04;;;;;;;53.47;21.87;;;;;;;;;;4993498;28;20904;-44
2023/03/09 05:41:31;;;;;;;53.22;20.88;;;;;;;;;;4994348;28;20510;-44
2023/03/09 05:43:59;;;;;;;44.53;18.70;;;;;;;;;;4993446;28;20520;-44
2023/03/09 05:46:25;;;;;;;46.60;20.75;;;;;;;;;;4993591;28;20669;-45
2023/03/09 05:48:51;;;;;;;46.33;19.80;;;;;;;;;;4993592;28;20216;-44
2023/03/09 05:51:17;;;;;;;46.10;19.88;;;;;;;;;;4992300;28;20902;-45
2023/03/09 05:53:43;;;;;;;57.35;21.35;;;;;;;;;;4995424;28;20212;-44
2023/03/09 05:56:09;;;;;;;48.57;20.43;;;;;;;;;;4993255;28;20208;-44
2023/03/09 05:58:35;;;;;;;51.38;19.60;;;;;;;;;;4997107;28;20416;-45
2023/03/09 06:01:01;;;;;;;43.67;18.23;;;;;;;;;;4992708;28;20173;-44
2023/03/09 06:03:28;;;;;;;45.63;19.20;;;;;;;;;;4993292;28;20435;-45
2023/03/09 06:06:01;;;;;;;47.63;19.23;;;;;;;;;;4993249;28;20590;-45
2023/03/09 06:08:27;;;;;;;44.55;18.83;;;;;;;;;;4992936;28;20192;-44
2023/03/09 06:10:52;;;;;;;45.93;19.70;;;;;;;;;;4992605;28;20303;-44
2023/03/09 06:13:20;;;;;;;54.40;21.37;;;;;;;;;;4993007;28;20439;-44
2023/03/09 06:15:46;;;;;;;49.13;19.55;;;;;;;;;;4991013;28;20463;-44
2023/03/09 06:18:12;;;;;;;46.88;20.55;;;;;;;;;;4995803;28;20177;-44
2023/03/09 06:20:38;;;;;;;53.30;21.10;;;;;;;;;;4992251;28;20180;-44
2023/03/09 06:23:04;;;;;;;52.53;21.30;;;;;;;;;;4995153;28;20432;-44
2023/03/09 06:25:30;;;;;;;52.60;20.50;;;;;;;;;;4992590;28;20478;-44
2023/03/09 06:27:56;;;;;;;67.25;23.80;;;;;;;;;;4992782;28;20194;-44
2023/03/09 06:30:22;;;;;;;58.17;20.00;;;;;;;;;;4991969;28;20264;-45
2023/03/09 06:32:48;;;;;;;60.97;21.73;;;;;;;;;;4992442;28;20220;-44
2023/03/09 06:35:15;;;;;;;53.78;23.27;;;;;;;;;;4992610;28;20183;-43
2023/03/09 06:37:41;;;;;;;48.92;20.33;;;;;;;;;;4992747;28;20681;-44
2023/03/09 06:40:08;;;;;;;58.60;23.07;;;;;;;;;;4992177;28;20259;-44
2023/03/09 06:42:34;;;;;;;62.75;24.40;;;;;;;;;;4989494;28;20527;-44
2023/03/09 06:45:00;;;;;;;73.57;20.77;;;;;;;;;;4991349;28;20621;-44
2023/03/09 06:47:26;;;;;;;63.47;23.38;;;;;;;;;;4992096;28;20759;-44
2023/03/09 06:49:52;;;;;;;60.07;20.53;;;;;;;;;;4992325;28;20231;-44
2023/03/09 06:52:18;;;;;;;60.00;21.58;;;;;;;;;;4991475;28;20562;-44
2023/03/09 06:54:44;;;;;;;64.43;22.03;;;;;;;;;;4992079;28;20624;-45
2023/03/09 06:57:10;;;;;;;69.57;23.80;;;;;;;;;;4992771;28;20408;-44
2023/03/09 06:59:36;;;;;;;49.97;18.42;;;;;;;;;;4992387;28;20508;-43
2023/03/09 07:02:02;;;;;;;65.33;21.13;;;;;;;;;;4991830;28;20331;-44
2023/03/09 07:04:28;;;;;;;47.60;19.57;;;;;;;;;;4992022;28;20416;-44
2023/03/09 07:06:54;;;;;;;68.47;23.13;;;;;;;;;;4992411;28;20439;-44
2023/03/09 07:09:20;;;;;;;58.30;23.90;;;;;;;;;;4990958;28;20428;-44
2023/03/09 07:11:48;;;;;;;58.40;21.10;;;;;;;;;;4991452;28;20463;-44
2023/03/09 07:14:13;;;;;;;52.97;19.10;;;;;;;;;;4999604;28;20212;-44
2023/03/09 07:16:39;;;;;;;68.03;24.70;;;;;;;;;;4990343;28;20653;-44
2023/03/09 07:19:05;;;;;;;58.20;22.30;;;;;;;;;;4995805;28;20944;-44
2023/03/09 07:21:31;;;;;;;53.27;19.20;;;;;;;;;;4991471;28;20886;-44
2023/03/09 07:23:57;;;;;;;46.87;18.10;;;;;;;;;;4994936;28;20818;-44
2023/03/09 07:26:23;;;;;;;48.73;18.70;;;;;;;;;;4992125;28;20426;-43
2023/03/09 07:28:49;;;;;;;40.83;17.00;;;;;;;;;;4999022;28;20423;-44
2023/03/09 07:31:15;;;;;;;53.13;18.30;;;;;;;;;;4991232;28;20994;-44
2023/03/09 07:33:41;;;;;;;43.23;18.60;;;;;;;;;;4991506;28;20420;-44
2023/03/09 07:36:08;;;;;;;44.43;17.63;;;;;;;;;;4991916;28;20408;-44
2023/03/09 07:38:34;;;;;;;44.67;19.80;;;;;;;;;;4998481;28;20414;-44
2023/03/09 07:41:01;;;;;;;50.38;20.85;;;;;;;;;;4991398;28;20215;-43
2023/03/09 07:43:27;;;;;;;39.28;17.00;;;;;;;;;;4991966;28;20204;-44
2023/03/09 07:45:53;;;;;;;38.33;17.65;;;;;;;;;;4990649;28;20640;-44
2023/03/09 07:48:19;;;;;;;43.72;17.08;;;;;;;;;;4991264;28;20185;-44
2023/03/09 07:50:45;;;;;;;54.00;20.73;;;;;;;;;;4990922;28;20205;-44
2023/03/09 07:53:11;;;;;;;42.53;18.85;;;;;;;;;;4991614;28;20199;-44
2023/03/09 07:55:38;;;;;;;46.38;18.40;;;;;;;;;;4991898;28;20212;-44
2023/03/09 07:58:04;;;;;;;40.72;17.98;;;;;;;;;;4997227;28;20658;-44
2023/03/09 08:00:32;;;;;;;44.20;18.95;;;;;;;;;;4994569;28;20679;-44
2023/03/09 08:02:58;;;;;;;51.70;19.17;;;;;;;;;;5000272;28;20586;-43
2023/03/09 08:05:24;;;;;;;41.87;18.20;;;;;;;;;;4995976;28;20283;-43
2023/03/09 08:07:50;;;;;;;52.05;21.38;;;;;;;;;;4994977;28;20432;-44
2023/03/09 08:10:17;;;;;;;49.20;17.98;;;;;;;;;;4994067;28;20272;-44
2023/03/09 08:12:43;;;;;;;45.72;18.40;;;;;;;;;;4994496;28;20223;-44
2023/03/09 08:15:09;;;;;;;50.92;20.48;;;;;;;;;;4986674;28;20169;-44
2023/03/09 08:17:35;;;;;;;58.00;21.67;;;;;;;;;;4994320;28;20189;-44
2023/03/09 08:20:02;;;;;;;50.77;19.23;;;;;;;;;;4993680;28;20180;-44
2023/03/09 08:22:28;;;;;;;74.72;22.50;;;;;;;;;;4994284;28;20442;-44
2023/03/09 08:24:54;;;;;;;63.10;22.17;;;;;;;;;;4993046;28;20552;-44
2023/03/09 08:27:20;;;;;;;59.57;22.43;;;;;;;;;;4995335;28;20815;-44
2023/03/09 08:29:46;;;;;;;56.77;19.50;;;;;;;;;;4995116;28;20412;-43
2023/03/09 08:32:13;;;;;;;52.28;21.00;;;;;;;;;;4994092;28;20471;-44
2023/03/09 08:34:39;;;;;;;53.38;21.80;;;;;;;;;;4994996;28;20193;-44
2023/03/09 08:37:05;;;;;;;62.97;24.02;;;;;;;;;;4994978;28;20173;-44
2023/03/09 08:39:31;;;;;;;64.83;23.73;;;;;;;;;;4994773;28;20243;-44
2023/03/09 08:41:57;;;;;;;61.27;22.00;;;;;;;;;;4993949;28;20435;-44
2023/03/09 08:44:23;;;;;;;59.17;21.50;;;;;;;;;;4992780;28;20912;-44
2023/03/09 08:46:49;;;;;;;62.63;20.87;;;;;;;;;;4994058;28;20928;-43
2023/03/09 08:49:15;;;;;;;58.37;20.70;;;;;;;;;;4994308;28;20970;-43
2023/03/09 08:51:41;;;;;;;51.23;21.13;;;;;;;;;;4992666;28;20828;-44
2023/03/09 08:54:06;;;;;;;48.60;20.13;;;;;;;;;;4994603;28;20499;-44
2023/03/09 08:56:32;;;;;;;62.27;21.50;;;;;;;;;;4994456;28;20423;-44
2023/03/09 08:58:58;;;;;;;61.30;22.23;;;;;;;;;;4994382;28;20474;-43
2023/03/09 09:01:24;;;;;;;51.07;19.03;;;;;;;;;;4993724;28;20791;-44
2023/03/09 09:03:50;;;;;;;51.07;18.10;;;;;;;;;;4994500;28;20408;-44
2023/03/09 09:06:16;;;;;;;43.90;17.87;;;;;;;;;;4994528;28;20420;-44
2023/03/09 09:08:43;;;;;;;51.03;20.73;;;;;;;;;;4993057;28;20432;-44
2023/03/09 09:11:14;;;;;;;43.92;18.20;;;;;;;;;;4993373;28;20203;-44
2023/03/09 09:13:41;;;;;;;53.50;20.60;;;;;;;;;;4994098;28;20183;-44
2023/03/09 09:16:07;;;;;;;49.83;21.60;;;;;;;;;;4994113;28;20538;-44
2023/03/09 09:18:35;;;;;;;56.67;19.67;;;;;;;;;;4991403;28;20188;-44
2023/03/09 09:21:07;;;;;;;48.63;19.52;;;;;;;;;;4991896;28;20577;-44
2023/03/09 09:23:33;;;;;;;50.45;18.75;;;;;;;;;;4993983;28;20211;-43
2023/03/09 09:25:59;;;;;;;47.67;17.85;;;;;;;;;;4993746;28;20263;-44
2023/03/09 09:28:25;;;;;;;47.27;17.63;;;;;;;;;;4994171;28;20268;-43
2023/03/09 09:30:55;;;;;;;48.30;19.40;;;;;;;;;;4993769;28;20463;-45
2023/03/09 09:33:21;;;;;;;47.58;19.63;;;;;;;;;;4993446;28;20458;-44
2023/03/09 09:35:57;;;;;;;54.15;21.33;;;;;;;;;;4993616;28;20227;-45
2023/03/09 09:38:24;;;;;;;55.00;20.55;;;;;;;;;;4992284;28;20180;-44
2023/03/09 09:40:50;;;;;;;50.13;20.58;;;;;;;;;;4989967;28;20232;-44
2023/03/09 09:43:18;;;;;;;65.32;22.58;;;;;;;;;;4993380;28;20205;-44
2023/03/09 09:45:45;;;;;;;52.67;19.73;;;;;;;;;;4993400;28;20399;-44
2023/03/09 09:48:18;;;;;;;56.88;20.20;;;;;;;;;;4993557;28;20594;-44
2023/03/09 09:50:53;;;;;;;71.85;22.27;;;;;;;;;;4992475;28;20429;-44
2023/03/09 09:53:26;;;;;;;60.10;20.85;;;;;;;;;;4992393;28;20192;-44
2023/03/09 09:55:52;;;;;;;50.70;19.92;;;;;;;;;;4989906;28;20184;-44
2023/03/09 09:58:27;;;;;;;47.83;19.95;;;;;;;;;;4994474;28;20176;-45
2023/03/09 10:00:54;;;;;;;61.65;21.92;;;;;;;;;;4992823;28;20168;-45
2023/03/09 10:03:29;;;;;;;59.95;20.35;;;;;;;;;;4995163;28;20209;-45
2023/03/09 10:06:13;;;;;;;44.25;20.23;;;;;;;;;;4994508;28;20231;-45
2023/03/09 10:08:42;;;;;;;51.63;19.85;;;;;;;;;;4994485;28;20574;-44
2023/03/09 10:11:28;;;;;;;53.45;20.33;;;;;;;;;;4992779;28;20558;-47
2023/03/09 10:13:56;;;;;;;63.38;21.75;;;;;;;;;;4994102;28;20188;-46
2023/03/09 10:16:24;;;;;;;57.53;21.08;;;;;;;;;;4994961;28;20169;-45
2023/03/09 10:18:54;;;;;;;44.63;18.58;;;;;;;;;;4998430;28;20241;-46
2023/03/09 10:21:26;;;;;;;56.95;19.70;;;;;;;;;;4993025;28;20173;-45
2023/03/09 10:23:53;;;;;;;59.17;21.73;;;;;;;;;;4995152;28;20247;-47
2023/03/09 10:26:32;;;;;;;52.55;21.25;;;;;;;;;;4994459;28;20707;-45
2023/03/09 10:29:02;;;;;;;59.00;20.67;;;;;;;;;;4994740;28;20259;-46
2023/03/09 10:31:32;;;;;;;58.42;20.77;;;;;;;;;;4993610;28;20216;-46
2023/03/09 10:34:24;;;;;;;59.00;23.00;;;;;;;;;;4994173;28;20184;-45
2023/03/09 10:37:01;;;;;;;57.15;21.00;;;;;;;;;;4993151;28;20197;-46
2023/03/09 10:39:29;;;;;;;61.75;22.02;;;;;;;;;;4993272;28;20183;-45
2023/03/09 10:41:56;;;;;;;56.10;21.50;;;;;;;;;;4993090;28;20209;-45
2023/03/09 10:44:22;;;;;;;55.22;20.13;;;;;;;;;;4994065;28;20664;-48
2023/03/09 10:46:59;;;;;;;55.33;21.67;;;;;;;;;;4995455;28;20668;-48
2023/03/09 10:49:25;;;;;;;52.28;20.52;;;;;;;;;;4994339;28;20176;-46
2023/03/09 10:52:00;;;;;;;48.97;19.80;;;;;;;;;;4994457;28;20601;-47
2023/03/09 10:54:33;;;;;;;58.67;21.23;;;;;;;;;;4994464;28;20226;-46
2023/03/09 10:56:59;;;;;;;38.72;15.55;;;;;;;;;;4993106;28;20180;-46
2023/03/09 10:59:28;;;;;;;42.43;17.87;;;;;;;;;;4994051;28;20239;-45
2023/03/09 11:01:56;;;;;;;40.78;16.92;;;;;;;;;;4993445;28;20443;-47
2023/03/09 11:04:22;;;;;;;44.90;18.58;;;;;;;;;;4994075;28;20207;-47
2023/03/09 11:06:55;;;;;;;35.70;16.80;;;;;;;;;;4994043;28;20615;-47
2023/03/09 11:09:21;;;;;;;34.30;13.80;;;;;;;;;;4992267;28;20425;-46
2023/03/09 11:11:49;;;;;;;29.07;14.77;;;;;;;;;;4992879;28;20220;-45
2023/03/09 11:14:32;;;;;;;33.42;15.52;;;;;;;;;;4993558;28;20409;-47
2023/03/09 11:16:59;;;;;;;40.67;17.33;;;;;;;;;;4994177;28;20199;-47
2023/03/09 11:19:25;;;;;;;36.95;16.08;;;;;;;;;;4993553;28;20173;-45
2023/03/09 11:21:51;;;;;;;36.08;17.35;;;;;;;;;;5000405;28;20230;-45
2023/03/09 11:24:18;;;;;;;33.20;15.90;;;;;;;;;;4993788;28;20182;-45
2023/03/09 11:26:51;;;;;;;42.72;18.60;;;;;;;;;;4994063;28;20455;-45
2023/03/09 11:29:33;;;;;;;40.17;17.95;;;;;;;;;;4992910;28;20192;-45
2023/03/09 11:31:59;;;;;;;39.58;17.20;;;;;;;;;;4997264;28;20205;-45
2023/03/09 11:34:32;;;;;;;45.10;19.27;;;;;;;;;;4997241;28;20196;-45
2023/03/09 11:37:02;;;;;;;38.80;19.97;;;;;;;;;;4997760;28;20392;-45
2023/03/09 11:39:31;;;;;;;38.78;17.67;;;;;;;;;;4995167;28;20980;-46
2023/03/09 11:41:58;;;;;;;45.10;19.02;;;;;;;;;;5002460;28;20230;-45
2023/03/09 11:44:24;;;;;;;38.03;16.77;;;;;;;;;;4996706;28;20256;-48
2023/03/09 11:46:51;;;;;;;36.90;15.20;;;;;;;;;;4996260;28;20219;-47
2023/03/09 11:49:19;;;;;;;38.75;16.65;;;;;;;;;;4997348;28;20416;-45
2023/03/09 11:51:52;;;;;;;46.83;17.75;;;;;;;;;;4996477;28;20204;-47
2023/03/09 11:54:18;;;;;;;39.40;18.10;;;;;;;;;;4996649;28;20177;-46
2023/03/09 11:56:44;;;;;;;36.17;16.83;;;;;;;;;;5002351;28;20408;-46
2023/03/09 11:59:16;;;;;;;40.47;17.20;;;;;;;;;;4996686;28;20404;-45
2023/03/09 12:01:43;;;;;;;37.63;18.45;;;;;;;;;;4996507;28;20669;-44
2023/03/09 12:04:09;;;;;;;40.53;17.43;;;;;;;;;;4996322;28;20206;-45
2023/03/09 12:06:57;;;;;;;40.13;17.40;;;;;;;;;;4999754;28;20407;-47
2023/03/09 12:09:26;;;;;;;34.35;17.50;;;;;;;;;;4989159;28;20428;-46
2023/03/09 12:11:54;;;;;;;35.97;16.80;;;;;;;;;;4999114;28;20204;-45
2023/03/09 12:14:20;;;;;;;33.83;17.80;;;;;;;;;;4997619;28;20412;-46
2023/03/09 12:16:49;;;;;;;35.33;17.73;;;;;;;;;;4998282;28;20825;-45
2023/03/09 12:19:17;;;;;;;37.47;18.00;;;;;;;;;;4995300;28;20417;-46
2023/03/09 12:22:03;;;;;;;34.77;16.90;;;;;;;;;;5000362;28;20192;-45
2023/03/09 12:24:33;;;;;;;34.90;16.25;;;;;;;;;;4992099;28;20491;-46
2023/03/09 12:27:04;;;;;;;45.72;18.83;;;;;;;;;;4997405;28;20214;-45
2023/03/09 12:29:35;;;;;;;35.47;16.65;;;;;;;;;;4996881;28;20177;-47
2023/03/09 12:32:17;;;;;;;37.05;17.60;;;;;;;;;;4999459;28;20203;-46
2023/03/09 12:34:43;;;;;;;38.90;17.40;;;;;;;;;;4996466;28;20189;-45
2023/03/09 12:37:28;;;;;;;46.47;18.23;;;;;;;;;;4996874;28;20904;-45
2023/03/09 12:40:05;;;;;;;40.40;16.80;;;;;;;;;;4996279;28;20942;-45
2023/03/09 12:42:38;;;;;;;43.13;19.17;;;;;;;;;;4997526;28;20443;-45
2023/03/09 12:45:22;;;;;;;36.20;16.53;;;;;;;;;;5000270;28;20423;-46
2023/03/09 12:47:50;;;;;;;37.93;17.07;;;;;;;;;;4996278;28;20416;-46
2023/03/09 12:50:25;;;;;;;38.20;18.50;;;;;;;;;;4995591;28;21035;-46
2023/03/09 12:52:57;;;;;;;38.07;18.97;;;;;;;;;;4998476;28;20441;-46
2023/03/09 12:55:25;;;;;;;41.93;19.07;;;;;;;;;;4996307;28;20830;-45
2023/03/09 12:57:52;;;;;;;37.77;18.80;;;;;;;;;;4998809;28;20435;-45
2023/03/09 13:00:22;;;;;;;33.20;16.47;;;;;;;;;;4993630;28;20417;-45
2023/03/09 13:02:53;;;;;;;36.87;18.17;;;;;;;;;;4994145;28;20496;-45
2023/03/09 13:05:24;;;;;;;45.33;19.27;;;;;;;;;;4994319;28;20422;-45
2023/03/09 13:08:04;;;;;;;41.33;18.43;;;;;;;;;;4993498;28;20441;-44
2023/03/09 13:10:32;;;;;;;35.43;16.67;;;;;;;;;;4991252;28;20477;-44
2023/03/09 13:13:27;;;;;;;32.10;18.70;;;;;;;;;;4992146;28;20841;-44
2023/03/09 13:16:13;;;;;;;47.73;20.47;;;;;;;;;;4957217;28;20490;-45
2023/03/09 13:18:39;;;;;;;38.60;17.13;;;;;;;;;;4989658;28;20422;-45
2023/03/09 13:21:30;;;;;;;42.10;18.17;;;;;;;;;;4992983;28;20424;-44
2023/03/09 13:23:56;;;;;;;33.20;15.67;;;;;;;;;;4993944;28;20457;-44
2023/03/09 13:26:23;;;;;;;40.23;17.50;;;;;;;;;;4993999;28;20914;-44
2023/03/09 13:28:51;;;;;;;42.60;19.40;;;;;;;;;;4993843;28;20969;-45
2023/03/09 13:31:23;;;;;;;43.10;18.40;;;;;;;;;;4992738;28;20623;-44
2023/03/09 13:33:50;;;;;;;41.20;18.60;;;;;;;;;;4993326;28;20433;-45
2023/03/09 13:36:22;;;;;;;40.93;18.80;;;;;;;;;;4993240;28;21080;-45
2023/03/09 13:38:50;;;;;;;44.67;20.50;;;;;;;;;;4992053;28;20796;-44
2023/03/09 13:41:18;;;;;;;36.83;18.00;;;;;;;;;;4992582;28;20453;-44
2023/03/09 13:43:46;;;;;;;42.03;19.17;;;;;;;;;;4991856;28;20435;-44
2023/03/09 13:46:20;;;;;;;38.20;18.97;;;;;;;;;;4993155;28;20478;-44
2023/03/09 13:48:48;;;;;;;41.67;17.60;;;;;;;;;;5001031;28;20442;-45
2023/03/09 13:51:25;;;;;;;48.40;19.03;;;;;;;;;;4992490;28;20465;-45
2023/03/09 13:53:51;;;;;;;36.40;17.47;;;;;;;;;;4994219;28;20455;-44
2023/03/09 13:56:17;;;;;;;37.90;17.00;;;;;;;;;;4992493;28;20445;-44
2023/03/09 13:58:45;;;;;;;35.53;17.27;;;;;;;;;;4993487;28;20781;-44
2023/03/09 14:01:20;;;;;;;42.27;19.33;;;;;;;;;;4992249;28;20422;-44
2023/03/09 14:03:47;;;;;;;40.67;18.40;;;;;;;;;;4992913;28;20422;-45
2023/03/09 14:06:13;;;;;;;37.53;17.63;;;;;;;;;;4993177;28;20424;-44
2023/03/09 14:08:45;;;;;;;41.00;17.05;;;;;;;;;;4993006;28;20420;-44
2023/03/09 14:11:37;;;;;;;39.70;16.60;;;;;;;;;;4987928;28;20736;-44
2023/03/09 14:14:05;;;;;;;42.90;19.13;;;;;;;;;;4990613;28;20279;-44
2023/03/09 14:16:44;;;;;;;43.58;20.00;;;;;;;;;;5109357;27;20573;-44
2023/03/09 14:19:17;;;;;;;44.53;18.17;;;;;;;;;;5107622;28;20184;-45
2023/03/09 14:21:49;;;;;;;39.70;19.03;;;;;;;;;;5108402;28;20430;-45
2023/03/09 14:24:32;;;;;;;39.90;20.43;;;;;;;;;;5111781;28;20784;-44